createdAt,value
2018-08-19T00:01:58.851Z,22.20
2018-08-19T00:06:55.276Z,21.93
2018-08-19T00:11:49.928Z,21.94
2018-08-19T00:16:44.594Z,21.99
2018-08-19T00:21:39.315Z,21.87
2018-08-19T00:26:33.935Z,21.76
2018-08-19T00:31:28.516Z,21.65
2018-08-19T00:36:34.454Z,21.64
2018-08-19T00:41:29.150Z,21.65
2018-08-19T00:46:30.577Z,21.64
2018-08-19T00:51:25.183Z,21.42
2018-08-19T00:56:20.789Z,21.31
2018-08-19T01:01:31.247Z,21.38
2018-08-19T01:06:26.070Z,21.32
2018-08-19T01:11:30.137Z,20.97
2018-08-19T01:16:25.659Z,21.07
2018-08-19T01:21:20.393Z,21.02
2018-08-19T01:26:14.948Z,21.00
2018-08-19T01:31:09.591Z,21.01
2018-08-19T01:36:04.234Z,20.84
2018-08-19T01:40:58.844Z,20.81
2018-08-19T01:45:53.459Z,20.50
2018-08-19T01:50:48.040Z,20.70
2018-08-19T01:55:42.658Z,20.58
2018-08-19T02:00:37.248Z,20.65
2018-08-19T02:05:34.845Z,20.45
2018-08-19T02:10:31.069Z,20.51
2018-08-19T02:15:27.115Z,20.53
2018-08-19T02:20:44.253Z,20.39
2018-08-19T02:25:43.478Z,20.41
2018-08-19T02:30:49.994Z,20.22
2018-08-19T02:35:50.293Z,20.10
2018-08-19T02:40:44.979Z,20.03
2018-08-19T02:45:39.623Z,20.04
2018-08-19T02:50:34.267Z,19.83
2018-08-19T02:55:29.017Z,20.03
2018-08-19T03:00:23.716Z,20.06
2018-08-19T03:05:18.380Z,20.02
2018-08-19T03:10:16.235Z,19.89
2018-08-19T03:15:13.156Z,19.79
2018-08-19T03:20:10.674Z,19.81
2018-08-19T03:25:05.738Z,19.77
2018-08-19T03:30:01.666Z,19.51
2018-08-19T03:35:07.289Z,19.56
2018-08-19T03:40:01.948Z,19.46
2018-08-19T03:45:03.600Z,19.21
2018-08-19T03:49:58.303Z,19.27
2018-08-19T03:54:52.947Z,19.32
2018-08-19T03:59:47.908Z,19.63
2018-08-19T04:04:42.583Z,19.59
2018-08-19T04:09:37.209Z,19.54
2018-08-19T04:14:31.932Z,19.46
2018-08-19T04:19:27.360Z,19.43
2018-08-19T04:24:22.032Z,19.33
2018-08-19T04:29:22.724Z,19.31
2018-08-19T04:34:17.319Z,19.31
2018-08-19T04:39:11.973Z,19.27
2018-08-19T04:44:06.612Z,19.32
2018-08-19T04:49:01.215Z,19.41
2018-08-19T04:53:55.818Z,19.24
2018-08-19T04:58:50.386Z,19.39
2018-08-19T05:03:46.267Z,19.77
2018-08-19T05:08:41.068Z,19.96
2018-08-19T05:13:35.681Z,20.18
2018-08-19T05:18:30.336Z,20.27
2018-08-19T05:23:24.951Z,20.34
2018-08-19T05:28:19.749Z,20.32
2018-08-19T05:33:14.423Z,20.36
2018-08-19T05:38:09.137Z,20.41
2018-08-19T05:43:03.799Z,20.56
2018-08-19T05:48:09.981Z,20.68
2018-08-19T05:53:04.751Z,20.77
2018-08-19T05:57:59.535Z,20.86
2018-08-19T06:02:59.936Z,20.97
2018-08-19T06:07:59.795Z,21.10
2018-08-19T06:12:56.345Z,21.24
2018-08-19T06:17:51.102Z,21.35
2018-08-19T06:22:45.863Z,21.33
2018-08-19T06:27:46.848Z,21.52
2018-08-19T06:32:41.723Z,21.61
2018-08-19T06:37:36.569Z,21.74
2018-08-19T06:42:31.357Z,21.93
2018-08-19T06:47:26.079Z,22.08
2018-08-19T06:52:21.077Z,22.21
2018-08-19T06:57:15.814Z,22.32
2018-08-19T07:02:10.607Z,22.61
2018-08-19T07:07:07.144Z,22.68
2018-08-19T07:12:06.728Z,22.91
2018-08-19T07:17:01.374Z,23.22
2018-08-19T07:22:00.215Z,23.53
2018-08-19T07:26:55.130Z,23.89
2018-08-19T07:31:49.783Z,23.98
2018-08-19T07:36:44.385Z,24.59
2018-08-19T07:41:38.980Z,25.07
2018-08-19T07:46:33.693Z,25.60
2018-08-19T07:51:28.307Z,25.28
2018-08-19T07:56:23.023Z,25.96
2018-08-19T08:01:17.816Z,25.80
2018-08-19T08:06:12.473Z,26.48
2018-08-19T08:11:07.189Z,26.69
2018-08-19T08:16:02.864Z,26.51
2018-08-19T08:21:04.560Z,26.29
2018-08-19T08:25:59.152Z,26.70
2018-08-19T08:30:53.962Z,26.74
2018-08-19T08:35:53.759Z,26.97
2018-08-19T08:40:48.465Z,26.79
2018-08-19T08:45:43.784Z,26.97
2018-08-19T08:50:38.637Z,26.77
2018-08-19T08:55:33.399Z,27.03
2018-08-19T09:00:28.144Z,27.64
2018-08-19T09:05:22.778Z,27.64
2018-08-19T09:10:17.411Z,27.73
2018-08-19T09:15:12.091Z,27.86
2018-08-19T09:20:09.246Z,27.79
2018-08-19T09:25:03.991Z,27.67
2018-08-19T09:29:58.605Z,27.85
2018-08-19T09:34:53.432Z,27.84
2018-08-19T09:39:48.115Z,28.28
2018-08-19T09:44:43.591Z,28.10
2018-08-19T09:49:38.388Z,28.45
2018-08-19T09:54:34.649Z,28.64
2018-08-19T09:59:29.319Z,28.35
2018-08-19T10:04:25.177Z,28.67
2018-08-19T10:09:19.785Z,28.61
2018-08-19T10:14:14.562Z,28.55
2018-08-19T10:19:09.292Z,28.93
2018-08-19T10:24:25.404Z,29.09
2018-08-19T10:29:20.016Z,29.00
2018-08-19T10:34:14.592Z,29.27
2018-08-19T10:39:15.942Z,29.27
2018-08-19T10:44:10.512Z,29.01
2018-08-19T10:49:05.104Z,29.44
2018-08-19T10:53:59.804Z,29.36
2018-08-19T10:58:59.314Z,29.58
2018-08-19T11:03:54.023Z,29.71
2018-08-19T11:08:55.660Z,29.55
2018-08-19T11:13:50.298Z,29.74
2018-08-19T11:18:46.944Z,29.85
2018-08-19T11:23:42.937Z,30.16
2018-08-19T11:28:44.266Z,30.15
2018-08-19T11:33:42.793Z,30.06
2018-08-19T11:38:38.048Z,29.77
2018-08-19T11:43:39.154Z,30.11
2018-08-19T11:48:34.600Z,30.03
2018-08-19T11:53:29.299Z,29.80
2018-08-19T11:58:37.304Z,29.89
2018-08-19T12:03:46.198Z,30.03
2018-08-19T12:08:40.864Z,29.77
2018-08-19T12:13:35.511Z,29.68
2018-08-19T12:18:30.142Z,29.58
2018-08-19T12:23:24.756Z,29.63
2018-08-19T12:28:19.391Z,29.87
2018-08-19T12:33:24.540Z,29.93
2018-08-19T12:38:19.312Z,29.94
2018-08-19T12:43:13.887Z,29.92
2018-08-19T12:48:08.567Z,29.91
2018-08-19T12:53:03.274Z,29.57
2018-08-19T12:58:03.234Z,29.64
2018-08-19T13:02:57.983Z,29.67
2018-08-19T13:07:52.829Z,29.59
2018-08-19T13:12:53.940Z,29.59
2018-08-19T13:17:48.580Z,29.75
2018-08-19T13:22:49.821Z,29.89
2018-08-19T13:27:44.512Z,29.95
2018-08-19T13:32:39.982Z,30.02
2018-08-19T13:37:34.859Z,29.79
2018-08-19T13:42:29.751Z,29.85
2018-08-19T13:47:24.714Z,29.47
2018-08-19T13:52:19.602Z,29.05
2018-08-19T13:57:14.578Z,29.21
2018-08-19T14:02:09.388Z,29.49
2018-08-19T14:07:05.020Z,29.80
2018-08-19T14:11:59.919Z,29.94
2018-08-19T14:16:54.961Z,29.94
2018-08-19T14:21:49.859Z,30.06
2018-08-19T14:26:44.740Z,30.11
2018-08-19T14:31:39.512Z,30.06
2018-08-19T14:36:34.399Z,29.97
2018-08-19T14:41:29.499Z,30.08
2018-08-19T14:46:25.206Z,30.06
2018-08-19T14:51:19.924Z,30.09
2018-08-19T14:56:17.142Z,30.02
2018-08-19T15:01:12.055Z,30.04
2018-08-19T15:06:07.357Z,30.04
2018-08-19T15:11:05.066Z,29.95
2018-08-19T15:16:00.046Z,29.90
2018-08-19T15:20:54.985Z,29.90
2018-08-19T15:25:49.859Z,29.95
2018-08-19T15:30:44.925Z,29.87
2018-08-19T15:35:40.059Z,29.95
2018-08-19T15:40:41.589Z,29.86
2018-08-19T15:45:36.577Z,29.82
2018-08-19T15:50:31.404Z,29.89
2018-08-19T15:55:26.368Z,29.85
2018-08-19T16:00:22.988Z,29.72
2018-08-19T16:05:18.469Z,29.59
2018-08-19T16:10:15.596Z,29.59
2018-08-19T16:15:14.577Z,29.53
2018-08-19T16:20:09.558Z,29.50
2018-08-19T16:25:04.496Z,29.50
2018-08-19T16:29:59.364Z,29.44
2018-08-19T16:34:54.039Z,29.38
2018-08-19T16:40:03.546Z,29.36
2018-08-19T16:44:58.226Z,29.22
2018-08-19T16:49:53.713Z,29.17
2018-08-19T16:54:57.558Z,29.03
2018-08-19T16:59:52.466Z,28.90
2018-08-19T17:04:47.390Z,28.74
2018-08-19T17:09:42.399Z,28.51
2018-08-19T17:27:48.980Z,28.24
2018-08-19T17:32:43.721Z,27.63
2018-08-19T17:37:38.243Z,27.50
2018-08-19T17:42:33.840Z,27.49
2018-08-19T17:47:28.423Z,27.40
2018-08-19T17:52:23.072Z,27.28
2018-08-19T17:57:17.767Z,27.25
2018-08-19T18:02:12.343Z,27.03
2018-08-19T18:07:11.504Z,26.86
2018-08-19T18:12:06.235Z,26.92
2018-08-19T18:17:01.359Z,26.86
2018-08-19T18:21:56.088Z,26.81
2018-08-19T18:26:50.822Z,26.58
2018-08-19T18:31:58.274Z,26.68
2018-08-19T18:36:52.866Z,26.53
2018-08-19T18:41:48.276Z,26.57
2018-08-19T18:46:43.164Z,26.45
2018-08-19T19:04:45.894Z,26.34
2018-08-19T19:09:48.760Z,26.25
2018-08-19T19:14:43.625Z,26.20
2018-08-19T19:19:45.118Z,26.22
2018-08-19T19:24:41.119Z,26.22
2018-08-19T19:29:35.948Z,26.20
2018-08-19T19:34:33.383Z,26.23
2018-08-19T19:39:28.271Z,26.22
2018-08-19T19:44:29.324Z,26.14
2018-08-19T19:49:24.517Z,26.21
2018-08-19T19:54:19.323Z,26.26
2018-08-19T19:59:14.528Z,26.41
2018-08-19T20:04:09.306Z,26.37
2018-08-19T20:09:04.267Z,26.11
2018-08-19T20:14:00.928Z,26.20
2018-08-19T20:18:55.686Z,26.20
2018-08-19T20:23:50.346Z,26.24
2018-08-19T20:28:45.108Z,26.25
2018-08-19T20:33:39.767Z,26.13
2018-08-19T20:38:34.384Z,26.11
2018-08-19T20:43:29.036Z,26.12
2018-08-19T20:48:23.978Z,26.04
2018-08-19T20:53:19.239Z,26.15
2018-08-19T20:58:14.300Z,26.01
2018-08-19T21:03:09.472Z,25.89
2018-08-19T21:08:14.867Z,25.83
2018-08-19T21:13:10.860Z,25.85
2018-08-19T21:18:06.208Z,25.91
2018-08-19T21:23:00.862Z,25.85
2018-08-19T21:27:55.607Z,25.88
2018-08-19T21:32:50.218Z,25.82
2018-08-19T21:37:46.779Z,25.71
2018-08-19T21:42:50.240Z,25.64
2018-08-19T21:47:44.804Z,25.57
2018-08-19T21:53:17.712Z,25.49
2018-08-19T21:58:12.373Z,25.26
2018-08-19T22:03:16.239Z,25.25
2018-08-19T22:08:10.937Z,25.16
2018-08-19T22:13:06.739Z,25.09
2018-08-19T22:18:02.052Z,25.08
2018-08-19T22:22:56.997Z,25.02
2018-08-19T22:27:51.596Z,24.92
2018-08-19T22:32:46.235Z,24.78
2018-08-19T22:37:40.902Z,24.73
2018-08-19T22:42:35.494Z,24.72
2018-08-19T22:47:30.219Z,24.67
2018-08-19T22:52:24.928Z,24.57
2018-08-19T22:57:19.633Z,24.56
2018-08-19T23:02:15.971Z,24.47
2018-08-19T23:07:10.576Z,24.41
2018-08-19T23:12:05.559Z,24.31
2018-08-19T23:17:00.156Z,24.11
2018-08-19T23:21:54.730Z,24.14
2018-08-19T23:26:49.601Z,24.19
2018-08-19T23:31:44.203Z,24.20
2018-08-19T23:36:38.808Z,24.13
2018-08-19T23:41:33.424Z,24.13
2018-08-19T23:46:28.041Z,24.02
2018-08-19T23:51:38.036Z,23.89
2018-08-19T23:56:33.096Z,23.78
